createdAt,value
2018-08-28T00:00:11.521Z,999.64
2018-08-28T00:01:21.596Z,999.73
2018-08-28T00:02:31.665Z,999.7
2018-08-28T00:03:41.739Z,999.73
2018-08-28T00:04:51.808Z,999.72
2018-08-28T00:06:01.912Z,999.71
2018-08-28T00:07:11.723Z,999.74
2018-08-28T00:08:21.540Z,999.75
2018-08-28T00:09:31.613Z,999.72
2018-08-28T00:10:41.723Z,999.74
2018-08-28T00:11:51.882Z,999.73
2018-08-28T00:13:01.693Z,999.73
2018-08-28T00:14:11.763Z,999.71
2018-08-28T00:15:21.871Z,999.73
2018-08-28T00:16:31.943Z,999.73
2018-08-28T00:17:42.064Z,999.75
2018-08-28T00:18:52.130Z,999.74
2018-08-28T00:20:02.228Z,999.74
2018-08-28T00:21:12.064Z,999.72
2018-08-28T00:22:22.129Z,999.72
2018-08-28T00:23:32.220Z,999.76
2018-08-28T00:24:42.037Z,999.74
2018-08-28T00:25:52.113Z,999.76
2018-08-28T00:27:01.935Z,999.77
2018-08-28T00:28:12.014Z,999.77
2018-08-28T00:29:22.138Z,999.78
2018-08-28T00:30:32.212Z,999.77
2018-08-28T00:31:42.293Z,999.75
2018-08-28T00:32:52.363Z,999.74
2018-08-28T00:34:02.435Z,999.75
2018-08-28T00:35:12.581Z,999.74
2018-08-28T00:36:22.403Z,999.73
2018-08-28T00:37:32.204Z,999.77
2018-08-28T00:38:42.266Z,999.74
2018-08-28T00:39:52.345Z,999.76
2018-08-28T00:41:01.901Z,999.78
2018-08-28T00:42:11.973Z,999.75
2018-08-28T00:43:22.055Z,999.78
2018-08-28T00:44:32.139Z,999.76
2018-08-28T00:45:42.229Z,999.74
2018-08-28T00:46:52.039Z,999.76
2018-08-28T00:48:02.124Z,999.8
2018-08-28T00:49:12.202Z,999.84
2018-08-28T00:50:22.046Z,999.78
2018-08-28T00:51:32.112Z,999.81
2018-08-28T00:52:42.181Z,999.83
2018-08-28T00:53:52.250Z,999.83
2018-08-28T00:55:02.326Z,999.84
2018-08-28T00:56:12.397Z,999.85
2018-08-28T00:57:22.209Z,999.89
2018-08-28T00:58:32.262Z,999.89
2018-08-28T00:59:42.331Z,999.93
2018-08-28T01:00:52.411Z,999.93
2018-08-28T01:02:02.477Z,999.93
2018-08-28T01:03:12.556Z,999.95
2018-08-28T01:04:22.694Z,999.96
2018-08-28T01:05:32.747Z,999.99
2018-08-28T01:06:42.815Z,1000
2018-08-28T01:07:52.911Z,999.99
2018-08-28T01:09:02.977Z,1000.02
2018-08-28T01:10:13.055Z,1000.01
2018-08-28T01:11:23.109Z,1000.03
2018-08-28T01:12:33.172Z,1000.03
2018-08-28T01:13:42.988Z,1000.02
2018-08-28T01:14:52.803Z,1000.03
2018-08-28T01:16:02.939Z,999.98
2018-08-28T01:17:13.097Z,1000.01
2018-08-28T01:18:23.166Z,999.99
2018-08-28T01:19:33.227Z,999.98
2018-08-28T01:20:43.040Z,999.95
2018-08-28T01:21:52.830Z,999.92
2018-08-28T01:23:02.653Z,999.98
2018-08-28T01:24:12.729Z,999.97
2018-08-28T01:25:22.285Z,999.95
2018-08-28T01:26:32.369Z,999.93
2018-08-28T01:27:42.517Z,999.95
2018-08-28T01:28:52.587Z,999.93
2018-08-28T01:30:02.405Z,999.93
2018-08-28T01:31:12.495Z,999.95
2018-08-28T01:32:22.565Z,999.93
2018-08-28T01:33:32.390Z,999.89
2018-08-28T01:34:42.469Z,999.87
2018-08-28T01:35:52.307Z,999.85
2018-08-28T01:37:02.363Z,999.84
2018-08-28T01:38:12.110Z,999.84
2018-08-28T01:39:22.428Z,999.84
2018-08-28T01:40:32.243Z,999.84
2018-08-28T01:41:42.297Z,999.85
2018-08-28T01:42:52.382Z,999.84
2018-08-28T01:44:02.484Z,999.84
2018-08-28T01:45:12.552Z,999.89
2018-08-28T01:46:22.626Z,999.83
2018-08-28T01:47:32.442Z,999.82
2018-08-28T01:48:42.523Z,999.87
2018-08-28T01:49:52.603Z,999.85
2018-08-28T01:51:02.698Z,999.82
2018-08-28T01:52:12.539Z,999.83
2018-08-28T01:53:22.616Z,999.87
2018-08-28T01:54:32.716Z,999.88
2018-08-28T01:55:42.805Z,999.86
2018-08-28T01:56:52.881Z,999.9
2018-08-28T01:58:02.958Z,999.88
2018-08-28T01:59:13.042Z,999.85
2018-08-28T02:00:23.113Z,999.88
2018-08-28T02:01:33.208Z,999.9
2018-08-28T02:02:43.071Z,999.89
2018-08-28T02:03:53.160Z,999.85
2018-08-28T02:05:02.706Z,999.84
2018-08-28T02:06:12.790Z,999.87
2018-08-28T02:07:22.862Z,999.89
2018-08-28T02:08:32.767Z,999.9
2018-08-28T02:09:42.831Z,999.92
2018-08-28T02:10:52.912Z,999.93
2018-08-28T02:12:03.197Z,999.94
2018-08-28T02:13:13.333Z,999.9
2018-08-28T02:14:23.730Z,999.86
2018-08-28T02:15:34.037Z,999.83
2018-08-28T02:16:44.111Z,999.88
2018-08-28T02:17:54.244Z,999.86
2018-08-28T02:19:04.316Z,999.86
2018-08-28T02:20:14.416Z,999.9
2018-08-28T02:21:24.239Z,999.9
2018-08-28T02:22:34.309Z,999.96
2018-08-28T02:23:43.866Z,999.96
2018-08-28T02:24:53.936Z,999.94
2018-08-28T02:26:04.026Z,999.95
2018-08-28T02:27:14.092Z,999.97
2018-08-28T02:28:24.151Z,999.98
2018-08-28T02:29:34.233Z,999.99
2018-08-28T02:30:44.056Z,999.95
2018-08-28T02:31:54.210Z,999.95
2018-08-28T02:33:04.300Z,999.89
2018-08-28T02:34:14.394Z,999.85
2018-08-28T02:35:24.204Z,999.82
2018-08-28T02:36:34.295Z,999.8
2018-08-28T02:37:44.409Z,999.8
2018-08-28T02:38:54.486Z,999.79
2018-08-28T02:40:04.569Z,999.79
2018-08-28T02:41:14.649Z,999.88
2018-08-28T02:42:24.461Z,999.92
2018-08-28T02:43:34.526Z,999.95
2018-08-28T02:44:44.594Z,999.99
2018-08-28T02:45:54.664Z,999.98
2018-08-28T02:47:04.740Z,999.96
2018-08-28T02:48:14.820Z,999.99
2018-08-28T02:49:24.890Z,1000.05
2018-08-28T02:50:34.963Z,1000.05
2018-08-28T02:51:45.035Z,1000.02
2018-08-28T02:52:55.125Z,1000.09
2018-08-28T02:54:05.204Z,1000.03
2018-08-28T02:55:15.284Z,1000.02
2018-08-28T02:56:25.153Z,1000.01
2018-08-28T02:57:35.245Z,1000.07
2018-08-28T02:58:45.320Z,1000.06
2018-08-28T02:59:55.136Z,1000.03
2018-08-28T03:01:05.217Z,1000.06
2018-08-28T03:02:15.287Z,1000.1
2018-08-28T03:34:44.278Z,1000.22
2018-08-28T03:35:54.340Z,1000.2
2018-08-28T03:37:04.420Z,1000.18
2018-08-28T03:38:14.298Z,1000.21
2018-08-28T03:39:24.370Z,1000.22
2018-08-28T03:40:34.173Z,1000.31
2018-08-28T03:41:44.235Z,1000.28
2018-08-28T03:42:53.517Z,1000.3
2018-08-28T03:44:03.589Z,1000.26
2018-08-28T03:45:13.639Z,1000.26
2018-08-28T03:46:23.495Z,1000.21
2018-08-28T03:47:33.306Z,1000.21
2018-08-28T03:48:43.116Z,1000.22
2018-08-28T03:49:53.186Z,1000.32
2018-08-28T03:51:03.252Z,1000.32
2018-08-28T03:52:13.461Z,1000.36
2018-08-28T03:53:23.520Z,1000.39
2018-08-28T03:54:33.332Z,1000.36
2018-08-28T03:55:43.398Z,1000.34
2018-08-28T03:56:53.487Z,1000.33
2018-08-28T03:58:03.698Z,1000.35
2018-08-28T03:59:13.770Z,1000.35
2018-08-28T04:00:23.584Z,1000.35
2018-08-28T04:01:33.663Z,1000.31
2018-08-28T04:02:43.478Z,1000.29
2018-08-28T04:03:53.567Z,1000.27
2018-08-28T04:05:03.982Z,1000.24
2018-08-28T04:06:13.534Z,1000.29
2018-08-28T04:07:23.605Z,1000.31
2018-08-28T04:08:33.684Z,1000.31
2018-08-28T04:09:43.506Z,1000.33
2018-08-28T04:10:53.586Z,1000.32
2018-08-28T04:12:03.657Z,1000.31
2018-08-28T04:13:13.756Z,1000.34
2018-08-28T04:14:23.845Z,1000.28
2018-08-28T04:15:33.967Z,1000.36
2018-08-28T04:16:43.778Z,1000.32
2018-08-28T04:17:53.333Z,1000.37
2018-08-28T04:19:03.487Z,1000.39
2018-08-28T04:20:13.567Z,1000.48
2018-08-28T04:21:23.377Z,1000.52
2018-08-28T04:22:33.466Z,1000.56
2018-08-28T04:23:44.071Z,1000.55
2018-08-28T04:24:53.882Z,1000.58
2018-08-28T04:26:03.970Z,1000.59
2018-08-28T04:27:14.099Z,1000.6
2018-08-28T04:28:24.197Z,1000.6
2018-08-28T04:29:34.273Z,1000.58
2018-08-28T04:30:44.347Z,1000.61
2018-08-28T04:31:54.739Z,1000.67
2018-08-28T04:33:04.622Z,1000.65
2018-08-28T04:34:14.185Z,1000.64
2018-08-28T04:35:24.277Z,1000.71
2018-08-28T04:36:34.370Z,1000.74
2018-08-28T04:37:44.436Z,1000.7
2018-08-28T04:38:54.578Z,1000.69
2018-08-28T04:40:04.661Z,1000.66
2018-08-28T04:41:14.742Z,1000.71
2018-08-28T04:42:24.549Z,1000.73
2018-08-28T04:43:34.652Z,1000.74
2018-08-28T04:44:44.465Z,1000.71
2018-08-28T04:45:54.540Z,1000.77
2018-08-28T04:47:04.360Z,1000.79
2018-08-28T04:48:14.458Z,1000.83
2018-08-28T04:49:24.308Z,1000.83
2018-08-28T04:50:34.412Z,1000.87
2018-08-28T04:51:43.979Z,1000.88
2018-08-28T04:52:53.798Z,1000.89
2018-08-28T04:54:03.609Z,1000.92
2018-08-28T04:55:14.037Z,1000.86
2018-08-28T04:56:24.122Z,1000.85
2018-08-28T04:57:34.176Z,1000.83
2018-08-28T04:58:44.033Z,1000.85
2018-08-28T04:59:54.131Z,1000.86
2018-08-28T05:01:03.934Z,1000.85
2018-08-28T05:02:13.799Z,1000.87
2018-08-28T05:03:23.907Z,1000.88
2018-08-28T05:04:33.976Z,1000.88
2018-08-28T05:05:44.047Z,1000.9
2018-08-28T05:06:54.146Z,1000.93
2018-08-28T05:08:03.954Z,1000.9
2018-08-28T05:09:14.064Z,1000.95
2018-08-28T05:10:23.618Z,1000.95
2018-08-28T05:11:33.682Z,1000.98
2018-08-28T05:12:44.055Z,1000.98
2018-08-28T05:13:54.125Z,1000.94
2018-08-28T05:15:04.196Z,1000.93
2018-08-28T05:16:14.274Z,1000.96
2018-08-28T05:17:24.376Z,1000.93
2018-08-28T05:18:34.460Z,1000.95
2018-08-28T05:19:44.531Z,1000.96
2018-08-28T05:20:54.630Z,1000.95
2018-08-28T05:22:04.699Z,1001.02
2018-08-28T05:23:14.501Z,1000.98
2018-08-28T05:24:24.578Z,1001.05
2018-08-28T05:25:34.712Z,1001.03
2018-08-28T05:26:44.780Z,1000.99
2018-08-28T05:27:54.860Z,1001.02
2018-08-28T05:29:04.925Z,1001.01
2018-08-28T05:30:14.741Z,1001.06
2018-08-28T05:31:25.100Z,1000.99
2018-08-28T05:32:34.909Z,1001.01
2018-08-28T05:33:44.715Z,1000.97
2018-08-28T05:34:54.799Z,1000.96
2018-08-28T05:36:04.876Z,1000.96
2018-08-28T05:37:14.759Z,1000.97
2018-08-28T05:38:24.831Z,1000.97
2018-08-28T05:39:34.916Z,1000.96
2018-08-28T05:40:45.025Z,1001
2018-08-28T05:41:55.106Z,1000.98
2018-08-28T05:43:04.913Z,1000.99
2018-08-28T05:44:14.727Z,1000.97
2018-08-28T05:45:24.529Z,1001.01
2018-08-28T05:46:34.604Z,1000.99
2018-08-28T05:47:44.683Z,1001.04
2018-08-28T05:48:54.772Z,1001.04
2018-08-28T05:50:04.843Z,1001.05
2018-08-28T05:51:14.928Z,1001.07
2018-08-28T05:52:24.744Z,1001.09
2018-08-28T05:53:34.825Z,1001.15
2018-08-28T05:54:44.781Z,1001.2
2018-08-28T05:55:55.066Z,1001.18
2018-08-28T05:57:05.354Z,1001.18
2018-08-28T05:58:15.174Z,1001.24
2018-08-28T05:59:25.263Z,1001.23
2018-08-28T06:00:35.083Z,1001.26
2018-08-28T06:01:45.145Z,1001.25
2018-08-28T06:02:55.260Z,1001.29
2018-08-28T06:04:05.758Z,1001.31
2018-08-28T06:05:15.576Z,1001.3
2018-08-28T06:06:25.747Z,1001.32
2018-08-28T06:07:35.302Z,1001.38
2018-08-28T06:08:45.200Z,1001.33
2018-08-28T06:09:55.521Z,1001.32
2018-08-28T06:11:05.607Z,1001.35
2018-08-28T06:12:15.742Z,1001.36
2018-08-28T06:13:25.841Z,1001.36
2018-08-28T06:14:35.941Z,1001.37
2018-08-28T06:15:46.505Z,1001.42
2018-08-28T06:16:56.582Z,1001.46
2018-08-28T06:18:06.733Z,1001.48
2018-08-28T06:19:16.831Z,1001.45
2018-08-28T06:20:26.926Z,1001.45
2018-08-28T06:21:37.021Z,1001.39
2018-08-28T06:22:47.165Z,1001.39
2018-08-28T06:23:57.078Z,1001.38
2018-08-28T06:25:07.162Z,1001.38
2018-08-28T06:26:17.017Z,1001.43
2018-08-28T06:27:27.077Z,1001.47
2018-08-28T06:28:37.215Z,1001.5
2018-08-28T06:29:47.288Z,1001.49
2018-08-28T06:30:57.394Z,1001.53
2018-08-28T06:32:07.220Z,1001.49
2018-08-28T06:33:17.291Z,1001.52
2018-08-28T06:34:27.448Z,1001.5
2018-08-28T06:35:37.523Z,1001.5
2018-08-28T06:36:47.616Z,1001.52
2018-08-28T06:37:57.729Z,1001.47
2018-08-28T06:39:08.009Z,1001.49
2018-08-28T06:40:17.887Z,1001.51
2018-08-28T06:41:27.972Z,1001.5
2018-08-28T06:42:38.061Z,1001.47
2018-08-28T06:43:48.247Z,1001.5
2018-08-28T06:44:58.975Z,1001.49
2018-08-28T06:46:09.153Z,1001.49
2018-08-28T06:47:19.221Z,1001.47
2018-08-28T06:48:29.024Z,1001.49
2018-08-28T06:49:39.155Z,1001.5
2018-08-28T06:50:49.465Z,1001.5
2018-08-28T06:51:59.520Z,1001.51
2018-08-28T06:53:09.332Z,1001.51
2018-08-28T06:54:19.144Z,1001.49
2018-08-28T06:55:28.957Z,1001.57
2018-08-28T06:56:39.102Z,1001.58
2018-08-28T06:57:50.079Z,1001.61
2018-08-28T06:58:59.888Z,1001.64
2018-08-28T07:00:09.970Z,1001.64
2018-08-28T07:01:20.054Z,1001.67
2018-08-28T07:02:29.980Z,1001.71
2018-08-28T07:03:40.023Z,1001.68
2018-08-28T07:04:50.214Z,1001.75
2018-08-28T07:06:00.407Z,1001.7
2018-08-28T07:07:10.229Z,1001.72
2018-08-28T07:08:20.303Z,1001.73
2018-08-28T07:09:30.398Z,1001.73
2018-08-28T07:10:40.465Z,1001.73
2018-08-28T07:11:50.282Z,1001.78
2018-08-28T07:13:00.866Z,1001.78
2018-08-28T07:14:10.941Z,1001.78
2018-08-28T07:15:21.125Z,1001.79
2018-08-28T07:16:31.382Z,1001.82
2018-08-28T07:17:41.194Z,1001.83
2018-08-28T07:18:51.462Z,1001.82
2018-08-28T07:20:01.681Z,1001.86
2018-08-28T07:21:11.775Z,1001.82
2018-08-28T07:22:21.602Z,1001.82
2018-08-28T07:23:31.429Z,1001.8
2018-08-28T07:24:41.274Z,1001.8
2018-08-28T07:25:51.623Z,1001.8
2018-08-28T07:27:02.118Z,1001.8
2018-08-28T07:28:12.200Z,1001.8
2018-08-28T07:29:22.304Z,1001.8
2018-08-28T07:30:32.395Z,1001.79
2018-08-28T07:31:42.560Z,1001.77
2018-08-28T07:32:52.785Z,1001.82
2018-08-28T07:34:02.883Z,1001.74
2018-08-28T07:35:13.042Z,1001.74
2018-08-28T07:36:23.117Z,1001.78
2018-08-28T07:37:33.096Z,1001.77
2018-08-28T07:38:43.513Z,1001.72
2018-08-28T07:39:53.321Z,1001.77
2018-08-28T07:41:03.528Z,1001.8
2018-08-28T07:42:13.638Z,1001.78
2018-08-28T07:43:23.731Z,1001.83
2018-08-28T07:44:33.830Z,1001.83
2018-08-28T07:45:43.936Z,1001.87
2018-08-28T07:46:55.798Z,1001.85
2018-08-28T07:48:08.369Z,1001.88
2018-08-28T07:49:21.876Z,1001.86
2018-08-28T07:50:35.424Z,1001.92
2018-08-28T07:51:50.024Z,1001.92
2018-08-28T07:53:12.094Z,1001.96
2018-08-28T07:54:32.953Z,1001.97
2018-08-28T07:55:54.477Z,1002.05
2018-08-28T07:57:14.272Z,1002.03
2018-08-28T07:58:30.414Z,1001.95
2018-08-28T07:59:47.623Z,1002.01
2018-08-28T08:01:05.373Z,1002.08
2018-08-28T08:02:22.145Z,1002.01
2018-08-28T08:03:36.587Z,1001.99
2018-08-28T08:04:51.153Z,1001.98
2018-08-28T08:06:04.664Z,1002.07
2018-08-28T08:07:19.835Z,1002.01
2018-08-28T08:08:34.705Z,1002.06
2018-08-28T08:09:46.539Z,1002.11
2018-08-28T08:11:00.776Z,1002.05
2018-08-28T08:12:14.948Z,1002.05
2018-08-28T08:13:30.314Z,1002.04
2018-08-28T08:14:46.039Z,1002
2018-08-28T08:16:01.195Z,1002.01
2018-08-28T08:17:11.728Z,1002.01
2018-08-28T08:18:21.821Z,1001.99
2018-08-28T08:19:32.003Z,1001.95
2018-08-28T08:20:42.144Z,1001.99
2018-08-28T08:21:52.283Z,1001.98
2018-08-28T08:23:02.604Z,1001.97
2018-08-28T08:24:12.513Z,1001.97
2018-08-28T08:25:22.650Z,1001.96
2018-08-28T08:26:32.765Z,1001.98
2018-08-28T08:27:42.936Z,1001.97
2018-08-28T08:28:53.531Z,1001.98
2018-08-28T08:30:03.655Z,1001.99
2018-08-28T08:31:13.897Z,1001.97
2018-08-28T08:32:23.996Z,1002.02
2018-08-28T08:33:33.867Z,1002.01
2018-08-28T08:34:44.247Z,1002
2018-08-28T08:35:54.158Z,1002
2018-08-28T08:37:04.270Z,1002.05
2018-08-28T08:38:14.379Z,1002.03
2018-08-28T08:39:24.484Z,1002.03
2018-08-28T08:40:34.650Z,1002.04
2018-08-28T08:41:44.790Z,1002.04
2018-08-28T08:42:55.049Z,1002.07
2018-08-28T08:44:04.669Z,1002.09
2018-08-28T08:45:14.787Z,1002.06
2018-08-28T08:46:24.893Z,1002.09
2018-08-28T08:47:35.008Z,1002.09
2018-08-28T08:48:45.146Z,1002.06
2018-08-28T08:49:55.261Z,1002.07
2018-08-28T08:51:05.408Z,1002.07
2018-08-28T08:52:15.642Z,1002.03
2018-08-28T08:53:25.812Z,1002
2018-08-28T08:54:35.944Z,1002.01
2018-08-28T08:55:46.115Z,1002.01
2018-08-28T08:56:55.991Z,1001.98
2018-08-28T08:58:05.839Z,1001.99
2018-08-28T08:59:15.710Z,1001.98
2018-08-28T09:00:25.643Z,1001.98
2018-08-28T09:01:35.584Z,1001.9
2018-08-28T09:02:45.469Z,1001.94
2018-08-28T09:03:55.465Z,1001.91
2018-08-28T09:05:05.674Z,1001.94
2018-08-28T09:06:15.809Z,1001.9
2018-08-28T09:07:25.921Z,1001.87
2018-08-28T09:08:36.037Z,1001.9
2018-08-28T09:09:46.213Z,1001.93
2018-08-28T09:10:56.073Z,1001.91
2018-08-28T09:12:06.252Z,1001.94
2018-08-28T09:13:16.376Z,1001.9
2018-08-28T09:14:26.785Z,1001.9
2018-08-28T09:15:36.986Z,1001.89
2018-08-28T09:16:47.135Z,1001.87
2018-08-28T09:17:57.311Z,1001.92
2018-08-28T09:19:07.203Z,1001.9
2018-08-28T09:20:17.446Z,1001.89
2018-08-28T09:21:27.710Z,1001.85
2018-08-28T09:22:37.875Z,1001.84
2018-08-28T09:23:47.982Z,1001.86
2018-08-28T09:24:58.118Z,1001.89
2018-08-28T09:26:08.224Z,1001.89
2018-08-28T09:27:18.590Z,1001.88
2018-08-28T09:28:28.735Z,1001.86
2018-08-28T09:29:38.850Z,1001.91
2018-08-28T09:30:48.965Z,1001.87
2018-08-28T09:31:59.092Z,1001.89
2018-08-28T09:33:09.060Z,1001.86
2018-08-28T09:34:19.191Z,1001.89
2018-08-28T09:35:29.310Z,1001.91
2018-08-28T09:36:39.424Z,1001.91
2018-08-28T09:37:49.582Z,1001.93
2018-08-28T09:38:59.769Z,1001.88
2018-08-28T09:40:09.887Z,1001.9
2018-08-28T09:41:20.014Z,1001.89
2018-08-28T09:42:29.858Z,1001.91
2018-08-28T09:43:40.042Z,1001.85
2018-08-28T09:44:50.484Z,1001.88
2018-08-28T09:46:00.861Z,1001.89
2018-08-28T09:47:11.038Z,1001.91
2018-08-28T09:48:21.172Z,1001.85
2018-08-28T09:49:31.849Z,1001.81
2018-08-28T09:50:42.111Z,1001.8
2018-08-28T09:51:52.673Z,1001.82
2018-08-28T09:53:03.357Z,1001.81
2018-08-28T09:54:13.483Z,1001.83
2018-08-28T09:55:23.628Z,1001.88
2018-08-28T09:56:33.817Z,1001.88
2018-08-28T09:57:44.515Z,1001.84
2018-08-28T09:58:54.697Z,1001.88
2018-08-28T10:00:04.603Z,1001.81
2018-08-28T10:01:14.477Z,1001.83
2018-08-28T10:02:24.375Z,1001.8
2018-08-28T10:03:34.527Z,1001.79
2018-08-28T10:04:44.742Z,1001.86
2018-08-28T10:05:55.506Z,1001.86
2018-08-28T10:07:05.348Z,1001.8
2018-08-28T10:08:15.487Z,1001.88
2018-08-28T10:09:25.643Z,1001.82
2018-08-28T10:10:35.904Z,1001.82
2018-08-28T10:11:45.527Z,1001.76
2018-08-28T10:12:55.655Z,1001.78
2018-08-28T10:14:05.770Z,1001.74
2018-08-28T10:15:15.876Z,1001.71
2018-08-28T10:16:26.000Z,1001.76
2018-08-28T10:17:36.361Z,1001.73
2018-08-28T10:18:46.748Z,1001.72
2018-08-28T10:19:56.938Z,1001.75
2018-08-28T10:21:07.060Z,1001.78
2018-08-28T10:22:17.166Z,1001.78
2018-08-28T10:23:27.284Z,1001.73
2018-08-28T10:24:37.411Z,1001.73
2018-08-28T10:25:47.548Z,1001.74
2018-08-28T10:26:57.667Z,1001.73
2018-08-28T10:28:07.814Z,1001.76
2018-08-28T10:29:17.942Z,1001.71
2018-08-28T10:30:28.136Z,1001.65
2018-08-28T10:31:38.761Z,1001.65
2018-08-28T10:32:48.702Z,1001.73
2018-08-28T10:33:59.054Z,1001.68
2018-08-28T10:35:09.623Z,1001.66
2018-08-28T10:36:19.749Z,1001.71
2018-08-28T10:37:29.587Z,1001.69
2018-08-28T10:38:39.702Z,1001.69
2018-08-28T10:39:49.817Z,1001.61
2018-08-28T10:40:59.943Z,1001.71
2018-08-28T10:42:10.079Z,1001.65
2018-08-28T10:43:20.259Z,1001.65
2018-08-28T10:44:30.600Z,1001.61
2018-08-28T10:45:40.470Z,1001.62
2018-08-28T10:46:50.521Z,1001.6
2018-08-28T10:48:01.616Z,1001.58
2018-08-28T10:49:11.466Z,1001.59
2018-08-28T10:50:21.581Z,1001.59
2018-08-28T10:51:31.711Z,1001.59
2018-08-28T10:52:41.902Z,1001.62
2018-08-28T10:53:52.258Z,1001.59
2018-08-28T10:55:02.458Z,1001.59
2018-08-28T10:56:12.671Z,1001.63
2018-08-28T10:57:22.806Z,1001.63
2018-08-28T10:58:32.986Z,1001.71
2018-08-28T10:59:43.399Z,1001.69
2018-08-28T11:00:53.237Z,1001.68
2018-08-28T11:02:03.424Z,1001.65
2018-08-28T11:03:13.282Z,1001.63
2018-08-28T11:04:23.409Z,1001.61
2018-08-28T11:05:33.841Z,1001.61
2018-08-28T11:06:43.945Z,1001.61
2018-08-28T11:07:54.131Z,1001.67
2018-08-28T11:09:04.267Z,1001.6
2018-08-28T11:10:14.379Z,1001.58
2018-08-28T11:11:24.504Z,1001.58
2018-08-28T11:12:34.672Z,1001.54
2018-08-28T11:13:44.835Z,1001.56
2018-08-28T11:14:54.958Z,1001.55
2018-08-28T11:16:05.349Z,1001.56
2018-08-28T11:17:16.700Z,1001.51
2018-08-28T11:18:27.033Z,1001.62
2018-08-28T11:19:36.937Z,1001.64
2018-08-28T11:20:47.072Z,1001.61
2018-08-28T11:21:57.197Z,1001.6
2018-08-28T11:23:07.358Z,1001.57
2018-08-28T11:24:17.495Z,1001.53
2018-08-28T11:25:27.388Z,1001.58
2018-08-28T11:26:37.524Z,1001.51
2018-08-28T11:27:47.715Z,1001.54
2018-08-28T11:28:57.903Z,1001.59
2018-08-28T11:30:08.179Z,1001.51
2018-08-28T11:31:18.405Z,1001.6
2018-08-28T11:32:28.883Z,1001.56
2018-08-28T11:33:39.230Z,1001.55
2018-08-28T11:34:49.397Z,1001.6
2018-08-28T11:35:59.715Z,1001.49
2018-08-28T11:37:10.815Z,1001.49
2018-08-28T11:38:21.081Z,1001.48
2018-08-28T11:39:31.805Z,1001.47
2018-08-28T11:40:41.970Z,1001.53
2018-08-28T11:41:52.152Z,1001.47
2018-08-28T11:43:02.317Z,1001.51
2018-08-28T11:44:12.453Z,1001.5
2018-08-28T11:45:22.324Z,1001.47
2018-08-28T11:46:32.503Z,1001.51
2018-08-28T11:47:42.687Z,1001.57
2018-08-28T11:48:52.863Z,1001.47
2018-08-28T11:50:03.049Z,1001.53
2018-08-28T11:51:13.194Z,1001.45
2018-08-28T11:52:23.327Z,1001.54
2018-08-28T11:53:33.720Z,1001.47
2018-08-28T11:54:43.872Z,1001.48
2018-08-28T11:55:54.017Z,1001.46
2018-08-28T11:57:04.182Z,1001.45
2018-08-28T11:58:14.059Z,1001.46
2018-08-28T11:59:24.158Z,1001.46
2018-08-28T12:00:34.282Z,1001.43
2018-08-28T12:01:44.451Z,1001.44
2018-08-28T12:02:54.650Z,1001.44
2018-08-28T12:04:04.545Z,1001.49
2018-08-28T12:05:14.838Z,1001.46
2018-08-28T12:06:25.442Z,1001.42
2018-08-28T12:07:35.675Z,1001.43
2018-08-28T12:08:46.061Z,1001.42
2018-08-28T12:09:56.204Z,1001.42
2018-08-28T12:11:06.327Z,1001.42
2018-08-28T12:12:16.443Z,1001.39
2018-08-28T12:13:26.629Z,1001.4
2018-08-28T12:14:36.838Z,1001.36
2018-08-28T12:15:46.745Z,1001.39
2018-08-28T12:16:56.875Z,1001.36
2018-08-28T12:18:06.994Z,1001.3
2018-08-28T12:19:16.846Z,1001.29
2018-08-28T12:20:26.861Z,1001.36
2018-08-28T12:21:37.650Z,1001.28
2018-08-28T12:22:47.888Z,1001.31
2018-08-28T12:23:58.047Z,1001.29
2018-08-28T12:25:08.569Z,1001.29
2018-08-28T12:26:17.877Z,1001.29
2018-08-28T12:27:28.005Z,1001.25
2018-08-28T12:28:38.248Z,1001.23
2018-08-28T12:29:48.471Z,1001.2
2018-08-28T12:30:58.655Z,1001.15
2018-08-28T12:32:08.788Z,1001.12
2018-08-28T12:33:18.932Z,1001.15
2018-08-28T12:34:29.132Z,1001.08
2018-08-28T12:35:39.320Z,1001.13
2018-08-28T12:36:49.595Z,1001.14
2018-08-28T12:38:00.650Z,1001.1
2018-08-28T12:39:10.508Z,1001.11
2018-08-28T12:40:20.721Z,1001.1
2018-08-28T12:41:30.846Z,1001.07
2018-08-28T12:42:40.959Z,1001.07
2018-08-28T12:43:51.208Z,1001.1
2018-08-28T12:45:01.815Z,1001.12
2018-08-28T12:46:12.120Z,1001.1
2018-08-28T12:47:22.397Z,1001.09
2018-08-28T12:48:32.291Z,1001.08
2018-08-28T12:49:42.466Z,1001.06
2018-08-28T12:50:52.621Z,1001.04
2018-08-28T12:52:02.927Z,1001.02
2018-08-28T12:53:13.063Z,1001.02
2018-08-28T12:54:22.933Z,1001.05
2018-08-28T12:55:33.154Z,1000.99
2018-08-28T12:56:43.348Z,1001.07
2018-08-28T12:57:53.634Z,1001.04
2018-08-28T12:59:03.772Z,1000.99
2018-08-28T13:00:13.922Z,1000.99
2018-08-28T13:01:23.839Z,1001.02
2018-08-28T13:02:34.229Z,1000.95
2018-08-28T13:03:44.463Z,1001.03
2018-08-28T13:04:54.355Z,1001.05
2018-08-28T13:06:04.477Z,1000.99
2018-08-28T13:07:14.645Z,1001.02
2018-08-28T13:08:25.071Z,1001.01
2018-08-28T13:09:34.982Z,1000.98
2018-08-28T13:10:45.199Z,1000.97
2018-08-28T13:11:55.074Z,1000.92
2018-08-28T13:13:05.419Z,1000.93
2018-08-28T13:14:15.562Z,1000.86
2018-08-28T13:15:25.819Z,1000.89
2018-08-28T13:16:35.948Z,1000.91
2018-08-28T13:17:46.092Z,1000.94
2018-08-28T13:18:56.251Z,1000.9
2018-08-28T13:20:06.171Z,1000.9
2018-08-28T13:21:16.638Z,1000.9
2018-08-28T13:22:26.770Z,1000.9
2018-08-28T13:23:36.626Z,1000.96
2018-08-28T13:24:46.777Z,1000.86
2018-08-28T13:25:56.711Z,1000.87
2018-08-28T13:27:07.880Z,1000.86
2018-08-28T13:28:18.044Z,1000.82
2018-08-28T13:29:28.173Z,1000.82
2018-08-28T13:30:38.305Z,1000.82
2018-08-28T13:31:48.464Z,1000.85
2018-08-28T13:32:58.646Z,1000.84
2018-08-28T13:34:08.851Z,1000.83
2018-08-28T13:35:18.994Z,1000.8
2018-08-28T13:36:29.125Z,1000.81
2018-08-28T13:37:39.273Z,1000.84
2018-08-28T13:38:49.475Z,1000.82
2018-08-28T13:39:59.608Z,1000.8
2018-08-28T13:41:09.790Z,1000.86
2018-08-28T13:42:19.939Z,1000.8
2018-08-28T13:43:30.104Z,1000.79
2018-08-28T13:44:40.497Z,1000.77
2018-08-28T13:45:50.378Z,1000.78
2018-08-28T13:47:00.617Z,1000.83
2018-08-28T13:48:11.192Z,1000.77
2018-08-28T13:49:21.311Z,1000.76
2018-08-28T13:50:31.231Z,1000.73
2018-08-28T13:51:41.363Z,1000.72
2018-08-28T13:52:51.541Z,1000.69
2018-08-28T13:54:01.778Z,1000.69
2018-08-28T13:55:12.153Z,1000.66
2018-08-28T13:56:22.347Z,1000.66
2018-08-28T13:57:32.482Z,1000.64
2018-08-28T13:58:42.641Z,1000.62
2018-08-28T13:59:52.804Z,1000.64
2018-08-28T14:01:03.172Z,1000.61
2018-08-28T14:02:13.347Z,1000.57
2018-08-28T14:03:23.460Z,1000.6
2018-08-28T14:04:33.781Z,1000.59
2018-08-28T14:05:43.915Z,1000.58
2018-08-28T14:06:54.044Z,1000.56
2018-08-28T14:08:04.302Z,1000.54
2018-08-28T14:09:14.285Z,1000.51
2018-08-28T14:10:24.487Z,1000.46
2018-08-28T14:11:34.722Z,1000.49
2018-08-28T14:12:44.741Z,1000.48
2018-08-28T14:13:54.481Z,1000.47
2018-08-28T14:15:05.596Z,1000.41
2018-08-28T14:16:15.838Z,1000.42
2018-08-28T14:17:25.742Z,1000.44
2018-08-28T14:18:35.578Z,1000.37
2018-08-28T14:19:45.489Z,1000.38
2018-08-28T14:20:55.605Z,1000.34
2018-08-28T14:22:05.705Z,1000.33
2018-08-28T14:23:15.639Z,1000.35
2018-08-28T14:24:25.219Z,1000.4
2018-08-28T14:25:36.181Z,1000.34
2018-08-28T14:26:45.755Z,1000.36
2018-08-28T14:27:55.872Z,1000.38
2018-08-28T14:29:06.323Z,1000.38
2018-08-28T14:30:16.726Z,1000.34
2018-08-28T14:31:26.829Z,1000.32
2018-08-28T14:32:37.000Z,1000.31
2018-08-28T14:33:47.142Z,1000.3
2018-08-28T14:34:56.995Z,1000.25
2018-08-28T14:36:07.390Z,1000.29
2018-08-28T14:37:18.369Z,1000.18
2018-08-28T14:38:29.040Z,1000.23
2018-08-28T14:39:39.205Z,1000.18
2018-08-28T14:40:49.307Z,1000.22
2018-08-28T14:41:59.712Z,1000.18
2018-08-28T14:43:10.633Z,1000.19
2018-08-28T14:44:20.853Z,1000.19
2018-08-28T14:45:31.014Z,1000.2
2018-08-28T14:46:41.195Z,1000.16
2018-08-28T14:47:51.044Z,1000.16
2018-08-28T14:49:00.980Z,1000.16